Accueil
METAR-TAF:

METAR-TAF

Aéroports :

Aérodrome de Payerne

Payerne, Suisse

latitude: 46-49N, longitude: 006-57E, altitude: 490 m

Observation

Le bulletin a été fait il y a 32 minutes, à 16:20 UTC
Vent 5 kt de sud/sud-ouest, variant entre sud et ouest/sud-ouest
Température 7°C
Humidité 76%
Pression 1011 hPa
Visibilité 10 km ou plus
Nuages fragmentés à une hauteur de 7900 ft

METAR: LSMP 271620Z 20005KT 170V250 9999 BKN079 07/03 Q1011 RMK BLU

Heure: 17:52 (16:52 UTC)


TAF: absent

Observations et prévisions météorologiques de plus de 4000 aéroports (messages METAR et TAF).

Les stations disponibles sont représentées par des disques jaunes et rouges sur la carte.

Passer la souris dessus pour voir le nom de la station.

Cliquer dessus pour voir les observations et prévisions météorologiques.

Pour changer de carte: cliquez sur les boutons verts avec une croix noire pour zoomer, sur le bouton vert avec un tiret pour effectuer un zoom arrière, ou sur les flèches vertes pour les cartes adjacentes.


METAR-TAF: